createdAt,value
2023-04-19T00:01:12.739Z,56.70
2023-04-19T00:03:41.067Z,56.70
2023-04-19T00:06:10.933Z,56.70
2023-04-19T00:08:39.037Z,56.80
2023-04-19T00:11:07.239Z,56.80
2023-04-19T00:13:35.417Z,56.70
2023-04-19T00:16:03.659Z,56.70
2023-04-19T00:18:31.729Z,56.70
2023-04-19T00:21:00.048Z,56.70
2023-04-19T00:23:29.478Z,56.70
2023-04-19T00:25:57.573Z,56.70
2023-04-19T00:28:26.513Z,56.70
2023-04-19T00:30:54.676Z,56.70
2023-04-19T00:33:22.794Z,56.70
2023-04-19T00:35:50.910Z,56.70
2023-04-19T00:38:21.050Z,56.70
2023-04-19T00:40:50.579Z,56.70
2023-04-19T00:43:19.833Z,56.70
2023-04-19T00:45:50.386Z,56.70
2023-04-19T00:48:20.126Z,56.70
2023-04-19T00:50:48.477Z,56.70
2023-04-19T00:53:17.642Z,56.60
2023-04-19T00:55:46.813Z,56.60
2023-04-19T00:58:16.360Z,56.60
2023-04-19T01:00:45.308Z,56.60
2023-04-19T01:03:14.588Z,56.60
2023-04-19T01:05:44.238Z,56.60
2023-04-19T01:08:14.284Z,56.60
2023-04-19T01:10:42.342Z,56.70
2023-04-19T01:13:10.503Z,56.70
2023-04-19T01:15:40.550Z,56.70
2023-04-19T01:18:08.662Z,56.70
2023-04-19T01:20:36.834Z,56.70
2023-04-19T01:23:06.300Z,56.70
2023-04-19T01:25:34.374Z,56.70
2023-04-19T01:28:02.518Z,56.70
2023-04-19T01:30:30.628Z,56.70
2023-04-19T01:32:58.799Z,56.70
2023-04-19T01:35:27.186Z,56.70
2023-04-19T01:37:56.354Z,56.70
2023-04-19T01:40:27.408Z,56.70
2023-04-19T01:42:55.506Z,56.70
2023-04-19T01:45:23.632Z,56.70
2023-04-19T01:47:52.762Z,56.70
2023-04-19T01:50:20.947Z,56.80
2023-04-19T01:52:48.990Z,56.70
2023-04-19T01:55:17.180Z,56.80
2023-04-19T01:57:46.681Z,56.80
2023-04-19T02:00:15.466Z,56.80
2023-04-19T02:02:43.546Z,56.80
2023-04-19T02:05:11.839Z,56.80
2023-04-19T02:07:39.977Z,56.80
2023-04-19T02:10:11.232Z,56.80
2023-04-19T02:12:39.348Z,56.80
2023-04-19T02:15:10.122Z,56.80
2023-04-19T02:17:38.840Z,56.80
2023-04-19T02:20:09.247Z,56.80
2023-04-19T02:22:37.341Z,56.80
2023-04-19T02:25:06.526Z,56.80
2023-04-19T02:27:34.588Z,56.80
2023-04-19T02:30:02.738Z,56.80
2023-04-19T02:32:33.675Z,56.80
2023-04-19T02:35:01.827Z,56.80
2023-04-19T02:37:30.835Z,56.70
2023-04-19T02:39:58.934Z,56.70
2023-04-19T02:42:28.783Z,56.70
2023-04-19T02:44:57.009Z,56.70
2023-04-19T02:47:25.824Z,56.70
2023-04-19T02:49:55.595Z,56.70
2023-04-19T02:52:23.923Z,56.70
2023-04-19T02:54:52.053Z,56.70
2023-04-19T02:57:20.412Z,56.60
2023-04-19T02:59:48.914Z,56.60
2023-04-19T03:02:17.169Z,56.60
2023-04-19T03:04:45.356Z,56.60
2023-04-19T03:07:15.465Z,56.60
2023-04-19T03:09:43.751Z,56.60
2023-04-19T03:12:12.054Z,56.60
2023-04-19T03:14:40.195Z,56.60
2023-04-19T03:17:08.536Z,56.60
2023-04-19T03:19:37.352Z,56.60
2023-04-19T03:22:06.343Z,56.60
2023-04-19T03:24:37.950Z,56.60
2023-04-19T03:27:24.450Z,56.60
2023-04-19T03:29:58.624Z,56.60
2023-04-19T03:32:27.834Z,56.60
2023-04-19T03:34:55.964Z,56.60
2023-04-19T03:37:24.240Z,56.60
2023-04-19T03:39:54.137Z,56.60
2023-04-19T03:42:29.335Z,56.60
2023-04-19T03:45:09.396Z,56.60
2023-04-19T03:47:42.071Z,56.60
2023-04-19T03:50:11.530Z,56.60
2023-04-19T03:52:42.041Z,56.60
2023-04-19T03:55:14.059Z,56.70
2023-04-19T03:57:42.427Z,56.70
2023-04-19T04:00:20.546Z,56.70
2023-04-19T04:02:55.548Z,56.70
2023-04-19T04:05:24.190Z,56.70
2023-04-19T04:07:52.427Z,56.70
2023-04-19T04:10:22.100Z,56.60
2023-04-19T04:12:50.214Z,56.60
2023-04-19T04:15:25.034Z,56.60
2023-04-19T04:17:55.174Z,56.60
2023-04-19T04:20:23.430Z,56.60
2023-04-19T04:22:56.249Z,56.60
2023-04-19T04:25:26.432Z,56.50
2023-04-19T04:27:55.107Z,56.40
2023-04-19T04:30:27.939Z,56.30
2023-04-19T04:32:59.010Z,56.10
2023-04-19T04:35:29.900Z,56.00
2023-04-19T04:38:17.643Z,55.90
2023-04-19T04:40:54.561Z,55.90
2023-04-19T04:43:23.334Z,55.80
2023-04-19T04:45:52.383Z,55.80
2023-04-19T04:48:20.669Z,55.80
2023-04-19T04:50:48.775Z,55.80
2023-04-19T04:53:16.998Z,55.80
2023-04-19T04:55:47.338Z,55.80
2023-04-19T04:58:19.151Z,55.80
2023-04-19T05:00:56.099Z,55.80
2023-04-19T05:03:25.528Z,55.80
2023-04-19T05:05:58.300Z,56.00
2023-04-19T05:08:27.923Z,56.00
2023-04-19T05:11:01.360Z,56.00
2023-04-19T05:13:34.172Z,56.10
2023-04-19T05:16:02.400Z,56.10
2023-04-19T05:18:30.719Z,56.20
2023-04-19T05:20:58.957Z,56.20
2023-04-19T05:23:31.604Z,56.30
2023-04-19T05:25:59.727Z,56.30
2023-04-19T05:28:29.653Z,56.40
2023-04-19T05:31:06.473Z,56.50
2023-04-19T05:33:41.519Z,56.50
2023-04-19T05:36:11.184Z,56.60
2023-04-19T05:38:39.488Z,56.60
2023-04-19T05:41:08.175Z,56.60
2023-04-19T05:43:36.300Z,56.60
2023-04-19T05:46:06.560Z,56.60
2023-04-19T05:48:34.931Z,56.60
2023-04-19T05:51:25.733Z,56.60
2023-04-19T05:54:01.846Z,56.70
2023-04-19T05:56:30.565Z,56.70
2023-04-19T05:59:00.864Z,56.70
2023-04-19T06:01:31.206Z,56.70
2023-04-19T06:03:59.464Z,56.70
2023-04-19T06:06:28.041Z,56.60
2023-04-19T06:08:56.302Z,56.70
2023-04-19T06:11:34.850Z,56.50
2023-04-19T06:14:07.424Z,56.50
2023-04-19T06:16:37.026Z,56.50
2023-04-19T06:19:05.411Z,56.50
2023-04-19T06:21:33.837Z,56.40
2023-04-19T06:24:01.959Z,56.50
2023-04-19T06:26:30.146Z,56.50
2023-04-19T06:28:58.313Z,56.50
2023-04-19T06:31:27.372Z,56.50
2023-04-19T06:33:56.950Z,56.60
2023-04-19T06:36:25.918Z,56.60
2023-04-19T06:38:54.090Z,56.60
2023-04-19T06:41:23.033Z,56.70
2023-04-19T06:43:51.372Z,56.70
2023-04-19T06:46:19.581Z,56.70
2023-04-19T06:48:47.726Z,56.70
2023-04-19T06:51:17.303Z,56.70
2023-04-19T06:53:45.988Z,56.70
2023-04-19T06:56:14.712Z,56.80
2023-04-19T06:58:42.897Z,56.80
2023-04-19T07:01:11.927Z,56.70
2023-04-19T07:03:40.426Z,56.80
2023-04-19T07:06:09.061Z,56.80
2023-04-19T07:08:49.254Z,56.80
2023-04-19T07:11:19.305Z,56.80
2023-04-19T07:13:48.468Z,56.80
2023-04-19T07:16:16.696Z,56.80
2023-04-19T07:18:44.986Z,56.80
2023-04-19T07:21:13.191Z,56.80
2023-04-19T07:23:43.025Z,56.80
2023-04-19T07:26:11.298Z,56.80
2023-04-19T07:28:40.638Z,56.80
2023-04-19T07:31:08.842Z,56.70
2023-04-19T07:33:37.027Z,56.60
2023-04-19T07:36:06.521Z,56.60
2023-04-19T07:38:34.721Z,56.50
2023-04-19T07:41:05.457Z,56.50
2023-04-19T07:43:33.716Z,56.50
2023-04-19T07:46:01.940Z,56.50
2023-04-19T07:48:30.191Z,56.40
2023-04-19T07:50:58.298Z,56.40
2023-04-19T07:53:26.461Z,56.40
2023-04-19T07:55:54.584Z,56.40
2023-04-19T07:58:24.079Z,56.40
2023-04-19T08:00:52.339Z,56.50
2023-04-19T08:03:20.629Z,57.10
2023-04-19T08:05:48.991Z,57.20
2023-04-19T08:08:17.232Z,57.20
2023-04-19T08:10:45.918Z,57.30
2023-04-19T08:13:14.095Z,57.30
2023-04-19T08:18:15.057Z,57.20
2023-04-19T08:20:43.484Z,57.20
2023-04-19T08:23:21.463Z,57.30
2023-04-19T08:25:52.703Z,57.30
2023-04-19T08:28:20.896Z,57.20
2023-04-19T08:30:50.590Z,57.20
2023-04-19T08:33:19.172Z,57.20
2023-04-19T08:35:47.377Z,57.10
2023-04-19T08:38:15.515Z,57.10
2023-04-19T08:40:47.867Z,57.10
2023-04-19T08:43:18.073Z,57.00
2023-04-19T08:45:48.453Z,57.00
2023-04-19T08:48:19.500Z,56.90
2023-04-19T08:51:00.387Z,56.90
2023-04-19T08:53:32.281Z,56.80
2023-04-19T08:58:44.512Z,56.70
2023-04-19T09:01:22.931Z,56.60
2023-04-19T09:04:10.293Z,56.60
2023-04-19T09:06:48.563Z,56.50
2023-04-19T09:11:49.938Z,56.30
2023-04-19T09:14:20.020Z,56.30
2023-04-19T09:16:48.456Z,56.30
2023-04-19T09:19:24.161Z,56.20
2023-04-19T09:21:54.897Z,56.10
2023-04-19T09:27:12.830Z,55.80
2023-04-19T09:29:41.053Z,55.70
2023-04-19T09:32:09.219Z,55.60
2023-04-19T09:34:53.464Z,55.70
2023-04-19T09:37:41.630Z,55.70
2023-04-19T09:40:28.315Z,55.60
2023-04-19T09:45:30.467Z,55.60
2023-04-19T09:48:04.272Z,55.60
2023-04-19T09:50:42.676Z,55.60
2023-04-19T09:53:22.891Z,55.70
2023-04-19T09:56:00.446Z,55.80
2023-04-19T09:58:41.524Z,55.90
2023-04-19T10:01:16.909Z,56.10
2023-04-19T10:03:50.354Z,56.30
2023-04-19T10:08:55.096Z,56.60
2023-04-19T10:11:25.392Z,56.70
2023-04-19T10:13:58.906Z,56.80
2023-04-19T10:16:28.531Z,56.80
2023-04-19T10:18:58.567Z,56.90
2023-04-19T10:21:31.092Z,57.00
2023-04-19T10:24:01.155Z,57.00
2023-04-19T10:26:30.169Z,57.00
2023-04-19T10:28:58.754Z,57.10
2023-04-19T10:31:27.884Z,57.10
2023-04-19T10:33:57.561Z,57.20
2023-04-19T10:36:31.092Z,57.20
2023-04-19T10:38:59.226Z,57.30
2023-04-19T10:41:59.574Z,57.30
2023-04-19T10:44:27.817Z,57.40
2023-04-19T10:46:57.014Z,57.40
2023-04-19T10:49:25.851Z,57.50
2023-04-19T10:51:57.240Z,57.60
2023-04-19T10:54:32.687Z,57.90
2023-04-19T10:57:02.905Z,57.90
2023-04-19T10:59:31.705Z,57.90
2023-04-19T11:02:02.040Z,57.90
2023-04-19T11:05:11.426Z,57.90
2023-04-19T11:07:42.306Z,57.80
2023-04-19T11:10:12.590Z,57.80
2023-04-19T11:12:44.914Z,57.60
2023-04-19T11:15:13.126Z,57.70
2023-04-19T11:17:42.679Z,57.70
2023-04-19T11:20:13.509Z,57.60
2023-04-19T11:22:44.366Z,57.60
2023-04-19T11:25:14.244Z,57.60
2023-04-19T11:27:45.234Z,57.60
2023-04-19T11:30:15.462Z,57.60
2023-04-19T11:32:48.334Z,57.60
2023-04-19T11:35:19.375Z,57.60
2023-04-19T11:37:49.951Z,57.60
2023-04-19T11:40:19.084Z,57.50
2023-04-19T11:42:47.425Z,57.40
2023-04-19T11:45:30.377Z,57.50
2023-04-19T11:48:00.147Z,57.50
2023-04-19T11:50:33.287Z,57.50
2023-04-19T11:53:15.190Z,57.50
2023-04-19T11:55:47.837Z,57.50
2023-04-19T11:58:31.123Z,57.40
2023-04-19T12:01:04.087Z,57.50
2023-04-19T12:03:32.522Z,57.40
2023-04-19T12:06:03.833Z,57.40
2023-04-19T12:08:34.572Z,57.40
2023-04-19T12:11:04.184Z,57.40
2023-04-19T12:13:33.002Z,57.40
2023-04-19T12:16:01.730Z,57.50
2023-04-19T12:18:43.223Z,57.50
2023-04-19T12:21:12.132Z,57.50
2023-04-19T12:23:41.689Z,57.50
2023-04-19T12:26:09.946Z,57.50
2023-04-19T12:28:38.066Z,57.40
2023-04-19T12:31:06.462Z,57.50
2023-04-19T12:33:34.609Z,57.50
2023-04-19T12:36:03.001Z,57.50
2023-04-19T12:38:31.560Z,57.50
2023-04-19T12:41:02.232Z,57.60
2023-04-19T12:43:32.011Z,57.50
2023-04-19T12:46:00.365Z,57.50
2023-04-19T12:48:29.195Z,57.60
2023-04-19T12:50:58.000Z,57.50
2023-04-19T12:53:26.567Z,57.40
2023-04-19T12:55:55.428Z,57.40
2023-04-19T12:58:26.480Z,57.40
2023-04-19T13:00:54.601Z,57.20
2023-04-19T13:03:22.896Z,57.00
2023-04-19T13:05:51.396Z,57.00
2023-04-19T13:08:28.306Z,57.20
2023-04-19T13:11:06.017Z,57.30
2023-04-19T13:13:35.989Z,57.30
2023-04-19T13:16:04.262Z,57.40
2023-04-19T13:18:32.400Z,57.30
2023-04-19T13:21:00.590Z,57.40
2023-04-19T13:23:29.094Z,57.40
2023-04-19T13:25:57.358Z,57.40
2023-04-19T13:28:25.671Z,57.40
2023-04-19T13:30:55.291Z,57.40
2023-04-19T13:33:23.483Z,57.40
2023-04-19T13:35:51.709Z,57.40
2023-04-19T13:38:19.888Z,57.50
2023-04-19T13:40:48.084Z,57.40
2023-04-19T13:43:16.637Z,57.40
2023-04-19T13:45:46.361Z,57.40
2023-04-19T13:48:15.921Z,57.50
2023-04-19T13:50:44.238Z,57.40
2023-04-19T13:53:12.390Z,57.40
2023-04-19T13:55:41.261Z,57.40
2023-04-19T13:58:09.391Z,57.40
2023-04-19T14:00:37.589Z,57.50
2023-04-19T14:03:06.683Z,57.50
2023-04-19T14:05:36.585Z,57.40
2023-04-19T14:08:05.161Z,57.40
2023-04-19T14:10:33.358Z,57.40
2023-04-19T14:13:01.509Z,57.40
2023-04-19T14:15:29.821Z,57.40
2023-04-19T14:17:58.690Z,57.40
2023-04-19T14:20:26.929Z,57.40
2023-04-19T14:22:59.027Z,57.40
2023-04-19T14:25:27.280Z,57.40
2023-04-19T14:27:55.556Z,57.40
2023-04-19T14:30:25.974Z,57.40
2023-04-19T14:32:54.308Z,57.40
2023-04-19T14:35:23.592Z,57.60
2023-04-19T14:37:51.870Z,57.70
2023-04-19T14:40:21.372Z,57.60
2023-04-19T14:42:49.664Z,57.60
2023-04-19T14:45:17.802Z,57.70
2023-04-19T14:47:45.952Z,57.70
2023-04-19T14:50:14.176Z,57.60
2023-04-19T14:52:42.586Z,57.60
2023-04-19T14:55:12.426Z,57.60
2023-04-19T14:57:42.310Z,57.60
2023-04-19T15:00:12.822Z,57.60
2023-04-19T15:02:41.188Z,57.60
2023-04-19T15:05:10.310Z,57.40
2023-04-19T15:07:39.933Z,57.40
2023-04-19T15:10:10.337Z,57.50
2023-04-19T15:12:39.416Z,57.60
2023-04-19T15:15:10.082Z,57.60
2023-04-19T15:17:38.524Z,57.70
2023-04-19T15:20:08.977Z,57.70
2023-04-19T15:22:38.171Z,57.70
2023-04-19T15:25:07.297Z,57.70
2023-04-19T15:27:35.765Z,57.70
2023-04-19T15:30:05.007Z,57.70
2023-04-19T15:32:36.890Z,57.80
2023-04-19T15:35:05.976Z,57.80
2023-04-19T15:37:34.097Z,57.90
2023-04-19T15:40:02.265Z,57.90
2023-04-19T15:42:30.403Z,57.90
2023-04-19T15:44:58.543Z,58.00
2023-04-19T15:47:26.753Z,58.10
2023-04-19T15:49:57.396Z,58.10
2023-04-19T15:52:25.557Z,58.10
2023-04-19T15:54:53.771Z,58.10
2023-04-19T15:57:21.989Z,58.20
2023-04-19T15:59:50.139Z,58.30
2023-04-19T16:02:18.442Z,58.30
2023-04-19T16:04:48.297Z,58.30
2023-04-19T16:07:18.009Z,58.20
2023-04-19T16:09:46.108Z,58.30
2023-04-19T16:12:14.301Z,58.30
2023-04-19T16:14:42.543Z,58.30
2023-04-19T16:17:10.690Z,58.40
2023-04-19T16:19:38.830Z,58.40
2023-04-19T16:22:07.336Z,58.00
2023-04-19T16:24:36.814Z,57.50
2023-04-19T16:27:05.133Z,57.30
2023-04-19T16:29:33.298Z,57.20
2023-04-19T16:32:01.528Z,57.10
2023-04-19T16:34:29.683Z,57.00
2023-04-19T16:36:57.806Z,57.00
2023-04-19T16:39:26.112Z,57.10
2023-04-19T16:41:55.671Z,57.10
2023-04-19T16:44:23.906Z,57.10
2023-04-19T16:46:52.069Z,57.10
2023-04-19T16:49:21.967Z,57.10
2023-04-19T16:51:50.157Z,57.10
2023-04-19T16:54:18.319Z,57.10
2023-04-19T16:56:46.630Z,57.10
2023-04-19T16:59:16.409Z,57.10
2023-04-19T17:01:45.314Z,57.10
2023-04-19T17:04:13.740Z,57.10
2023-04-19T17:06:42.154Z,57.10
2023-04-19T17:09:10.272Z,57.00
2023-04-19T17:11:38.417Z,57.10
2023-04-19T17:14:06.622Z,57.00
2023-04-19T17:16:36.129Z,57.00
2023-04-19T17:19:04.271Z,57.00
2023-04-19T17:21:32.442Z,57.10
2023-04-19T17:24:00.620Z,57.10
2023-04-19T17:26:29.320Z,57.10
2023-04-19T17:28:57.991Z,57.20
2023-04-19T17:31:27.172Z,57.30
2023-04-19T17:33:56.822Z,57.30
2023-04-19T17:36:25.121Z,57.30
2023-04-19T17:38:53.371Z,57.30
2023-04-19T17:41:21.513Z,57.30
2023-04-19T17:43:49.753Z,57.30
2023-04-19T17:46:19.072Z,57.30
2023-04-19T17:48:47.695Z,57.40
2023-04-19T17:51:17.237Z,57.40
2023-04-19T17:53:45.431Z,57.40
2023-04-19T17:56:13.548Z,57.40
2023-04-19T17:58:41.706Z,57.40
2023-04-19T18:01:10.421Z,57.40
2023-04-19T18:03:39.046Z,57.40
2023-04-19T18:06:09.468Z,57.40
2023-04-19T18:08:38.966Z,57.40
2023-04-19T18:11:07.703Z,57.40
2023-04-19T18:13:35.861Z,57.40
2023-04-19T18:16:05.083Z,57.40
2023-04-19T18:18:33.506Z,57.40
2023-04-19T18:21:05.966Z,57.40
2023-04-19T18:23:34.172Z,57.40
2023-04-19T18:26:04.467Z,57.40
2023-04-19T18:28:35.334Z,57.40
2023-04-19T18:31:03.511Z,57.30
2023-04-19T18:33:31.692Z,57.30
2023-04-19T18:35:59.849Z,57.30
2023-04-19T18:38:28.064Z,57.30
2023-04-19T18:40:56.314Z,57.20
2023-04-19T18:43:26.407Z,57.20
2023-04-19T18:45:55.800Z,57.30
2023-04-19T18:48:27.844Z,57.30
2023-04-19T18:50:57.043Z,57.40
2023-04-19T18:53:28.465Z,57.50
2023-04-19T18:55:58.540Z,57.80
2023-04-19T18:58:29.541Z,58.00
2023-04-19T19:00:58.252Z,58.20
2023-04-19T19:05:58.517Z,58.40
2023-04-19T19:08:26.971Z,58.50
2023-04-19T19:13:26.322Z,58.70
2023-04-19T19:16:04.229Z,58.80
2023-04-19T19:18:38.769Z,58.80
2023-04-19T19:21:07.385Z,58.80
2023-04-19T19:23:41.836Z,58.70
2023-04-19T19:26:12.384Z,58.80
2023-04-19T19:28:40.795Z,58.70
2023-04-19T19:31:10.484Z,58.70
2023-04-19T19:33:40.774Z,58.70
2023-04-19T19:36:09.498Z,58.70
2023-04-19T19:38:38.315Z,58.80
2023-04-19T19:43:40.100Z,58.80
2023-04-19T19:46:09.532Z,58.80
2023-04-19T19:48:42.597Z,58.80
2023-04-19T19:51:31.541Z,58.80
2023-04-19T19:53:59.256Z,58.80
2023-04-19T19:56:28.190Z,58.70
2023-04-19T19:58:57.793Z,58.60
2023-04-19T20:01:27.145Z,58.60
2023-04-19T20:03:57.324Z,58.60
2023-04-19T20:07:15.606Z,58.60
2023-04-19T20:09:14.160Z,58.50
2023-04-19T20:11:42.306Z,58.50
2023-04-19T20:14:10.543Z,58.50
2023-04-19T20:16:38.730Z,58.50
2023-04-19T20:19:09.812Z,58.40
2023-04-19T20:21:38.708Z,58.40
2023-04-19T20:24:07.849Z,58.40
2023-04-19T20:26:36.212Z,58.30
2023-04-19T20:29:04.348Z,58.30
2023-04-19T20:31:32.594Z,58.30
2023-04-19T20:34:00.976Z,58.20
2023-04-19T20:36:31.826Z,58.20
2023-04-19T20:39:01.907Z,58.20
2023-04-19T20:41:30.087Z,58.10
2023-04-19T20:43:59.901Z,58.10
2023-04-19T20:46:28.710Z,58.10
2023-04-19T20:48:56.979Z,58.10
2023-04-19T20:51:25.283Z,58.10
2023-04-19T20:53:54.854Z,58.10
2023-04-19T20:56:23.081Z,58.00
2023-04-19T20:58:51.270Z,58.00
2023-04-19T21:01:22.578Z,58.00
2023-04-19T21:03:52.817Z,57.90
2023-04-19T21:06:23.433Z,57.90
2023-04-19T21:08:51.650Z,57.90
2023-04-19T21:11:21.139Z,57.80
2023-04-19T21:13:49.259Z,57.80
2023-04-19T21:16:17.487Z,57.70
2023-04-19T21:18:45.681Z,57.70
2023-04-19T21:21:13.826Z,57.60
2023-04-19T21:23:42.004Z,57.60
2023-04-19T21:26:10.161Z,57.60
2023-04-19T21:28:39.635Z,57.50
2023-04-19T21:31:07.786Z,57.50
2023-04-19T21:33:36.376Z,57.50
2023-04-19T21:36:04.825Z,57.40
2023-04-19T21:38:34.970Z,57.40
2023-04-19T21:41:03.068Z,57.40
2023-04-19T21:43:31.632Z,57.40
2023-04-19T21:46:04.738Z,57.30
2023-04-19T21:48:33.223Z,57.30
2023-04-19T21:51:02.046Z,57.30
2023-04-19T21:53:31.277Z,57.30
2023-04-19T21:55:59.572Z,57.30
2023-04-19T21:58:27.720Z,57.30
2023-04-19T22:00:56.030Z,57.20
2023-04-19T22:03:25.873Z,57.20
2023-04-19T22:05:54.249Z,57.20
2023-04-19T22:08:23.383Z,57.20
2023-04-19T22:10:51.497Z,57.20
2023-04-19T22:13:21.521Z,57.20
2023-04-19T22:15:49.778Z,57.20
2023-04-19T22:18:17.917Z,57.20
2023-04-19T22:20:49.745Z,57.10
2023-04-19T22:23:17.833Z,57.10
2023-04-19T22:25:46.101Z,57.10
2023-04-19T22:28:14.357Z,57.20
2023-04-19T22:30:42.515Z,57.10
2023-04-19T22:33:10.676Z,57.10
2023-04-19T22:35:38.812Z,57.10
2023-04-19T22:38:08.557Z,57.10
2023-04-19T22:40:36.768Z,57.20
2023-04-19T22:43:04.927Z,57.10
2023-04-19T22:45:33.010Z,57.10
2023-04-19T22:48:01.550Z,57.10
2023-04-19T22:50:29.916Z,57.10
2023-04-19T22:52:58.059Z,57.10
2023-04-19T22:55:27.596Z,57.10
2023-04-19T22:57:55.748Z,57.10
2023-04-19T23:00:24.656Z,57.10
2023-04-19T23:02:52.856Z,57.10
2023-04-19T23:05:21.160Z,57.10
2023-04-19T23:07:49.822Z,57.00
2023-04-19T23:10:19.302Z,57.00
2023-04-19T23:12:49.024Z,57.00
2023-04-19T23:15:17.383Z,57.00
2023-04-19T23:17:45.531Z,57.00
2023-04-19T23:20:13.938Z,57.00
2023-04-19T23:22:42.228Z,56.90
2023-04-19T23:25:11.236Z,56.90
2023-04-19T23:27:39.419Z,56.90
2023-04-19T23:30:09.949Z,56.90
2023-04-19T23:32:38.237Z,56.90
2023-04-19T23:35:06.885Z,56.90
2023-04-19T23:37:35.122Z,56.90
2023-04-19T23:40:03.961Z,57.00
2023-04-19T23:42:32.122Z,57.00
2023-04-19T23:45:00.307Z,56.90
2023-04-19T23:47:29.812Z,56.90
2023-04-19T23:49:57.956Z,56.90
2023-04-19T23:52:27.459Z,56.90
2023-04-19T23:54:55.581Z,56.90
2023-04-19T23:57:24.036Z,56.90
2023-04-19T23:59:52.148Z,57.00
